sensor_id;sensor_type;location;lat;lon;timestamp;P1;durP1;ratioP1;P2;durP2;ratioP2
11614;SDS011;5863;52.832;4.758;2023-06-19T00:02:11;7.47;;;6.43;;
11614;SDS011;5863;52.832;4.758;2023-06-19T00:04:38;7.75;;;7.05;;
11614;SDS011;5863;52.832;4.758;2023-06-19T00:07:05;7.97;;;6.95;;
11614;SDS011;5863;52.832;4.758;2023-06-19T00:09:31;8.55;;;7.65;;
11614;SDS011;5863;52.832;4.758;2023-06-19T00:11:58;7.80;;;7.10;;
11614;SDS011;5863;52.832;4.758;2023-06-19T00:14:27;8.20;;;7.50;;
11614;SDS011;5863;52.832;4.758;2023-06-19T00:16:54;7.90;;;7.20;;
11614;SDS011;5863;52.832;4.758;2023-06-19T00:19:21;8.05;;;7.25;;
11614;SDS011;5863;52.832;4.758;2023-06-19T00:21:48;11.30;;;7.78;;
11614;SDS011;5863;52.832;4.758;2023-06-19T00:24:14;8.60;;;7.80;;
11614;SDS011;5863;52.832;4.758;2023-06-19T00:26:41;9.60;;;7.90;;
11614;SDS011;5863;52.832;4.758;2023-06-19T00:29:08;11.95;;;8.43;;
11614;SDS011;5863;52.832;4.758;2023-06-19T00:31:36;13.85;;;8.10;;
11614;SDS011;5863;52.832;4.758;2023-06-19T00:34:03;9.57;;;8.05;;
11614;SDS011;5863;52.832;4.758;2023-06-19T00:36:30;9.95;;;8.10;;
11614;SDS011;5863;52.832;4.758;2023-06-19T00:38:57;8.45;;;7.45;;
11614;SDS011;5863;52.832;4.758;2023-06-19T00:41:24;9.30;;;8.38;;
11614;SDS011;5863;52.832;4.758;2023-06-19T00:43:56;9.20;;;8.27;;
11614;SDS011;5863;52.832;4.758;2023-06-19T00:46:23;9.38;;;7.90;;
11614;SDS011;5863;52.832;4.758;2023-06-19T00:48:51;9.77;;;7.60;;
11614;SDS011;5863;52.832;4.758;2023-06-19T00:51:18;8.73;;;7.75;;
11614;SDS011;5863;52.832;4.758;2023-06-19T00:53:44;9.90;;;7.50;;
11614;SDS011;5863;52.832;4.758;2023-06-19T00:56:11;8.68;;;7.68;;
11614;SDS011;5863;52.832;4.758;2023-06-19T00:58:40;11.43;;;8.00;;
11614;SDS011;5863;52.832;4.758;2023-06-19T01:01:07;9.00;;;8.10;;
11614;SDS011;5863;52.832;4.758;2023-06-19T01:03:34;9.60;;;8.13;;
11614;SDS011;5863;52.832;4.758;2023-06-19T01:06:03;11.43;;;8.75;;
11614;SDS011;5863;52.832;4.758;2023-06-19T01:08:42;9.23;;;7.97;;
11614;SDS011;5863;52.832;4.758;2023-06-19T01:11:16;8.70;;;7.80;;
11614;SDS011;5863;52.832;4.758;2023-06-19T01:13:47;11.35;;;8.75;;
11614;SDS011;5863;52.832;4.758;2023-06-19T01:16:16;9.82;;;8.18;;
11614;SDS011;5863;52.832;4.758;2023-06-19T01:18:44;10.35;;;8.32;;
11614;SDS011;5863;52.832;4.758;2023-06-19T01:21:13;8.75;;;7.95;;
11614;SDS011;5863;52.832;4.758;2023-06-19T01:23:42;8.80;;;7.90;;
11614;SDS011;5863;52.832;4.758;2023-06-19T01:26:10;8.85;;;7.95;;
11614;SDS011;5863;52.832;4.758;2023-06-19T01:28:38;9.15;;;8.20;;
11614;SDS011;5863;52.832;4.758;2023-06-19T01:31:08;9.93;;;7.93;;
11614;SDS011;5863;52.832;4.758;2023-06-19T01:33:38;8.75;;;7.85;;
11614;SDS011;5863;52.832;4.758;2023-06-19T01:36:06;11.10;;;8.45;;
11614;SDS011;5863;52.832;4.758;2023-06-19T01:38:34;8.63;;;7.72;;
11614;SDS011;5863;52.832;4.758;2023-06-19T01:41:03;9.10;;;8.20;;
11614;SDS011;5863;52.832;4.758;2023-06-19T01:43:32;8.93;;;8.02;;
11614;SDS011;5863;52.832;4.758;2023-06-19T01:46:00;12.05;;;8.13;;
11614;SDS011;5863;52.832;4.758;2023-06-19T01:48:26;9.70;;;8.70;;
11614;SDS011;5863;52.832;4.758;2023-06-19T01:50:53;9.73;;;7.88;;
11614;SDS011;5863;52.832;4.758;2023-06-19T01:53:20;7.50;;;6.80;;
11614;SDS011;5863;52.832;4.758;2023-06-19T01:55:47;8.40;;;4.57;;
11614;SDS011;5863;52.832;4.758;2023-06-19T01:58:15;9.15;;;4.13;;
11614;SDS011;5863;52.832;4.758;2023-06-19T02:00:42;6.63;;;3.65;;
11614;SDS011;5863;52.832;4.758;2023-06-19T02:03:08;5.97;;;4.18;;
11614;SDS011;5863;52.832;4.758;2023-06-19T02:05:35;6.05;;;4.10;;
11614;SDS011;5863;52.832;4.758;2023-06-19T02:08:04;3.85;;;3.08;;
11614;SDS011;5863;52.832;4.758;2023-06-19T02:10:31;4.80;;;3.28;;
11614;SDS011;5863;52.832;4.758;2023-06-19T02:12:58;7.25;;;3.05;;
11614;SDS011;5863;52.832;4.758;2023-06-19T02:15:26;4.28;;;2.83;;
11614;SDS011;5863;52.832;4.758;2023-06-19T02:17:54;5.88;;;2.60;;
11614;SDS011;5863;52.832;4.758;2023-06-19T02:20:21;3.60;;;2.67;;
11614;SDS011;5863;52.832;4.758;2023-06-19T02:22:49;6.47;;;3.35;;
11614;SDS011;5863;52.832;4.758;2023-06-19T02:25:16;8.60;;;2.83;;
11614;SDS011;5863;52.832;4.758;2023-06-19T02:27:43;7.07;;;3.33;;
11614;SDS011;5863;52.832;4.758;2023-06-19T02:30:10;4.20;;;2.75;;
11614;SDS011;5863;52.832;4.758;2023-06-19T02:32:39;6.90;;;2.75;;
11614;SDS011;5863;52.832;4.758;2023-06-19T02:35:06;3.50;;;2.90;;
11614;SDS011;5863;52.832;4.758;2023-06-19T02:37:34;4.80;;;2.70;;
11614;SDS011;5863;52.832;4.758;2023-06-19T02:40:02;4.05;;;3.03;;
11614;SDS011;5863;52.832;4.758;2023-06-19T02:42:30;3.25;;;2.80;;
11614;SDS011;5863;52.832;4.758;2023-06-19T02:44:56;5.28;;;3.15;;
11614;SDS011;5863;52.832;4.758;2023-06-19T02:47:28;5.18;;;3.38;;
11614;SDS011;5863;52.832;4.758;2023-06-19T02:49:56;3.83;;;2.90;;
11614;SDS011;5863;52.832;4.758;2023-06-19T02:52:23;5.88;;;3.20;;
11614;SDS011;5863;52.832;4.758;2023-06-19T02:54:50;3.67;;;3.30;;
11614;SDS011;5863;52.832;4.758;2023-06-19T02:57:16;3.50;;;3.10;;
11614;SDS011;5863;52.832;4.758;2023-06-19T02:59:43;3.80;;;3.47;;
11614;SDS011;5863;52.832;4.758;2023-06-19T03:02:10;4.57;;;3.67;;
11614;SDS011;5863;52.832;4.758;2023-06-19T03:04:37;4.72;;;3.72;;
11614;SDS011;5863;52.832;4.758;2023-06-19T03:07:05;5.43;;;3.70;;
11614;SDS011;5863;52.832;4.758;2023-06-19T03:09:32;4.97;;;3.92;;
11614;SDS011;5863;52.832;4.758;2023-06-19T03:11:58;5.70;;;4.03;;
11614;SDS011;5863;52.832;4.758;2023-06-19T03:14:25;5.53;;;3.92;;
11614;SDS011;5863;52.832;4.758;2023-06-19T03:16:52;5.90;;;4.30;;
11614;SDS011;5863;52.832;4.758;2023-06-19T03:19:19;4.63;;;4.22;;
11614;SDS011;5863;52.832;4.758;2023-06-19T03:21:45;5.63;;;4.40;;
11614;SDS011;5863;52.832;4.758;2023-06-19T03:24:13;6.40;;;4.20;;
11614;SDS011;5863;52.832;4.758;2023-06-19T03:26:40;4.97;;;4.47;;
11614;SDS011;5863;52.832;4.758;2023-06-19T03:29:06;5.43;;;4.80;;
11614;SDS011;5863;52.832;4.758;2023-06-19T03:31:33;6.65;;;6.05;;
11614;SDS011;5863;52.832;4.758;2023-06-19T03:34:00;8.20;;;5.93;;
11614;SDS011;5863;52.832;4.758;2023-06-19T03:36:26;7.10;;;6.40;;
11614;SDS011;5863;52.832;4.758;2023-06-19T03:38:53;8.85;;;7.13;;
11614;SDS011;5863;52.832;4.758;2023-06-19T03:41:21;10.80;;;9.70;;
11614;SDS011;5863;52.832;4.758;2023-06-19T03:43:48;12.77;;;11.38;;
11614;SDS011;5863;52.832;4.758;2023-06-19T03:46:15;11.98;;;10.85;;
11614;SDS011;5863;52.832;4.758;2023-06-19T03:48:42;13.55;;;11.63;;
11614;SDS011;5863;52.832;4.758;2023-06-19T03:51:09;15.73;;;14.13;;
11614;SDS011;5863;52.832;4.758;2023-06-19T03:53:35;15.73;;;14.23;;
11614;SDS011;5863;52.832;4.758;2023-06-19T03:56:02;18.48;;;16.33;;
11614;SDS011;5863;52.832;4.758;2023-06-19T03:58:30;18.85;;;16.98;;
11614;SDS011;5863;52.832;4.758;2023-06-19T04:00:57;19.00;;;17.10;;
11614;SDS011;5863;52.832;4.758;2023-06-19T04:03:24;20.23;;;18.10;;
11614;SDS011;5863;52.832;4.758;2023-06-19T04:05:50;20.05;;;17.80;;
11614;SDS011;5863;52.832;4.758;2023-06-19T04:08:17;19.83;;;17.88;;
11614;SDS011;5863;52.832;4.758;2023-06-19T04:10:44;20.48;;;18.38;;
11614;SDS011;5863;52.832;4.758;2023-06-19T04:13:11;25.98;;;21.50;;
11614;SDS011;5863;52.832;4.758;2023-06-19T04:15:39;24.60;;;19.48;;
11614;SDS011;5863;52.832;4.758;2023-06-19T04:18:09;24.02;;;19.63;;
11614;SDS011;5863;52.832;4.758;2023-06-19T04:20:35;25.75;;;18.25;;
11614;SDS011;5863;52.832;4.758;2023-06-19T04:23:02;24.38;;;19.27;;
11614;SDS011;5863;52.832;4.758;2023-06-19T04:25:29;24.30;;;19.50;;
11614;SDS011;5863;52.832;4.758;2023-06-19T04:27:55;21.90;;;18.02;;
11614;SDS011;5863;52.832;4.758;2023-06-19T04:30:22;25.10;;;17.45;;
11614;SDS011;5863;52.832;4.758;2023-06-19T04:32:50;21.10;;;14.90;;
11614;SDS011;5863;52.832;4.758;2023-06-19T04:35:18;20.75;;;14.82;;
11614;SDS011;5863;52.832;4.758;2023-06-19T04:37:44;19.08;;;13.68;;
11614;SDS011;5863;52.832;4.758;2023-06-19T04:40:13;16.58;;;12.43;;
11614;SDS011;5863;52.832;4.758;2023-06-19T04:42:40;18.58;;;12.18;;
11614;SDS011;5863;52.832;4.758;2023-06-19T04:45:07;22.15;;;12.40;;
11614;SDS011;5863;52.832;4.758;2023-06-19T04:47:34;18.45;;;11.52;;
11614;SDS011;5863;52.832;4.758;2023-06-19T04:50:03;21.85;;;11.95;;
11614;SDS011;5863;52.832;4.758;2023-06-19T04:52:30;18.90;;;12.23;;
11614;SDS011;5863;52.832;4.758;2023-06-19T04:54:58;18.13;;;12.05;;
11614;SDS011;5863;52.832;4.758;2023-06-19T04:57:24;17.25;;;11.63;;
11614;SDS011;5863;52.832;4.758;2023-06-19T04:59:51;20.63;;;12.48;;
11614;SDS011;5863;52.832;4.758;2023-06-19T05:02:18;25.83;;;15.07;;
11614;SDS011;5863;52.832;4.758;2023-06-19T05:04:44;22.83;;;16.58;;
11614;SDS011;5863;52.832;4.758;2023-06-19T05:07:12;25.73;;;18.33;;
11614;SDS011;5863;52.832;4.758;2023-06-19T05:09:40;22.83;;;19.42;;
11614;SDS011;5863;52.832;4.758;2023-06-19T05:12:07;26.65;;;19.70;;
11614;SDS011;5863;52.832;4.758;2023-06-19T05:14:34;30.75;;;21.45;;
11614;SDS011;5863;52.832;4.758;2023-06-19T05:17:01;32.20;;;21.50;;
11614;SDS011;5863;52.832;4.758;2023-06-19T05:19:28;36.95;;;24.90;;
11614;SDS011;5863;52.832;4.758;2023-06-19T05:21:54;35.35;;;26.05;;
11614;SDS011;5863;52.832;4.758;2023-06-19T05:24:22;39.70;;;27.75;;
11614;SDS011;5863;52.832;4.758;2023-06-19T05:26:49;43.00;;;29.10;;
11614;SDS011;5863;52.832;4.758;2023-06-19T05:29:16;43.25;;;29.08;;
11614;SDS011;5863;52.832;4.758;2023-06-19T05:31:42;50.00;;;29.77;;
11614;SDS011;5863;52.832;4.758;2023-06-19T05:34:09;43.63;;;29.38;;
11614;SDS011;5863;52.832;4.758;2023-06-19T05:36:36;45.72;;;28.63;;
11614;SDS011;5863;52.832;4.758;2023-06-19T05:39:02;42.50;;;24.85;;
11614;SDS011;5863;52.832;4.758;2023-06-19T05:41:30;35.35;;;22.83;;
11614;SDS011;5863;52.832;4.758;2023-06-19T05:43:57;35.17;;;22.98;;
11614;SDS011;5863;52.832;4.758;2023-06-19T05:46:25;40.88;;;23.67;;
11614;SDS011;5863;52.832;4.758;2023-06-19T05:48:51;39.83;;;24.85;;
11614;SDS011;5863;52.832;4.758;2023-06-19T05:51:19;43.63;;;26.35;;
11614;SDS011;5863;52.832;4.758;2023-06-19T05:53:46;43.80;;;26.70;;
11614;SDS011;5863;52.832;4.758;2023-06-19T05:56:14;52.88;;;28.00;;
11614;SDS011;5863;52.832;4.758;2023-06-19T05:58:42;49.35;;;26.60;;
11614;SDS011;5863;52.832;4.758;2023-06-19T06:01:09;48.13;;;27.73;;
11614;SDS011;5863;52.832;4.758;2023-06-19T06:03:36;50.03;;;28.05;;
11614;SDS011;5863;52.832;4.758;2023-06-19T06:06:02;49.15;;;25.95;;
11614;SDS011;5863;52.832;4.758;2023-06-19T06:08:30;50.22;;;27.27;;
11614;SDS011;5863;52.832;4.758;2023-06-19T06:10:57;44.83;;;24.30;;
11614;SDS011;5863;52.832;4.758;2023-06-19T06:13:23;36.97;;;21.83;;
11614;SDS011;5863;52.832;4.758;2023-06-19T06:15:51;32.50;;;20.27;;
11614;SDS011;5863;52.832;4.758;2023-06-19T06:18:18;24.30;;;16.30;;
11614;SDS011;5863;52.832;4.758;2023-06-19T06:20:45;23.33;;;15.52;;
11614;SDS011;5863;52.832;4.758;2023-06-19T06:23:12;22.90;;;13.90;;
11614;SDS011;5863;52.832;4.758;2023-06-19T06:25:39;18.95;;;12.00;;
11614;SDS011;5863;52.832;4.758;2023-06-19T06:28:05;16.85;;;11.63;;
11614;SDS011;5863;52.832;4.758;2023-06-19T06:30:32;17.33;;;11.20;;
11614;SDS011;5863;52.832;4.758;2023-06-19T06:33:00;16.38;;;10.70;;
11614;SDS011;5863;52.832;4.758;2023-06-19T06:35:27;19.95;;;11.85;;
11614;SDS011;5863;52.832;4.758;2023-06-19T06:37:53;23.00;;;11.82;;
11614;SDS011;5863;52.832;4.758;2023-06-19T06:40:20;15.65;;;10.70;;
11614;SDS011;5863;52.832;4.758;2023-06-19T06:42:47;13.88;;;9.98;;
11614;SDS011;5863;52.832;4.758;2023-06-19T06:45:14;16.35;;;9.73;;
11614;SDS011;5863;52.832;4.758;2023-06-19T06:47:41;15.27;;;9.02;;
11614;SDS011;5863;52.832;4.758;2023-06-19T06:50:09;13.07;;;8.88;;
11614;SDS011;5863;52.832;4.758;2023-06-19T06:52:36;17.20;;;8.93;;
11614;SDS011;5863;52.832;4.758;2023-06-19T06:55:03;20.60;;;9.82;;
11614;SDS011;5863;52.832;4.758;2023-06-19T06:57:30;15.70;;;9.65;;
11614;SDS011;5863;52.832;4.758;2023-06-19T06:59:57;18.17;;;10.18;;
11614;SDS011;5863;52.832;4.758;2023-06-19T07:02:24;17.23;;;10.35;;
11614;SDS011;5863;52.832;4.758;2023-06-19T07:04:50;17.23;;;10.73;;
11614;SDS011;5863;52.832;4.758;2023-06-19T07:07:19;19.52;;;11.48;;
11614;SDS011;5863;52.832;4.758;2023-06-19T07:09:45;20.30;;;10.50;;
11614;SDS011;5863;52.832;4.758;2023-06-19T07:12:12;14.85;;;10.82;;
11614;SDS011;5863;52.832;4.758;2023-06-19T07:14:39;19.00;;;11.43;;
11614;SDS011;5863;52.832;4.758;2023-06-19T07:17:06;19.25;;;10.68;;
11614;SDS011;5863;52.832;4.758;2023-06-19T07:19:33;18.75;;;11.75;;
11614;SDS011;5863;52.832;4.758;2023-06-19T07:21:59;22.17;;;11.80;;
11614;SDS011;5863;52.832;4.758;2023-06-19T07:24:28;16.75;;;11.38;;
11614;SDS011;5863;52.832;4.758;2023-06-19T07:26:54;19.83;;;12.60;;
11614;SDS011;5863;52.832;4.758;2023-06-19T07:29:21;18.85;;;11.68;;
11614;SDS011;5863;52.832;4.758;2023-06-19T07:31:48;19.45;;;12.65;;
11614;SDS011;5863;52.832;4.758;2023-06-19T07:34:15;19.70;;;12.40;;
11614;SDS011;5863;52.832;4.758;2023-06-19T07:36:41;18.58;;;12.27;;
11614;SDS011;5863;52.832;4.758;2023-06-19T07:39:08;21.40;;;12.65;;
11614;SDS011;5863;52.832;4.758;2023-06-19T07:41:36;21.05;;;12.80;;
11614;SDS011;5863;52.832;4.758;2023-06-19T07:44:03;17.90;;;12.70;;
11614;SDS011;5863;52.832;4.758;2023-06-19T07:46:30;24.50;;;13.70;;
11614;SDS011;5863;52.832;4.758;2023-06-19T07:48:56;24.25;;;13.95;;
11614;SDS011;5863;52.832;4.758;2023-06-19T07:51:23;26.05;;;13.80;;
11614;SDS011;5863;52.832;4.758;2023-06-19T07:53:50;25.63;;;14.02;;
11614;SDS011;5863;52.832;4.758;2023-06-19T07:56:17;26.35;;;14.15;;
11614;SDS011;5863;52.832;4.758;2023-06-19T07:58:46;25.13;;;14.93;;
11614;SDS011;5863;52.832;4.758;2023-06-19T08:01:13;21.20;;;14.00;;
11614;SDS011;5863;52.832;4.758;2023-06-19T08:03:41;21.50;;;15.38;;
11614;SDS011;5863;52.832;4.758;2023-06-19T08:06:08;18.58;;;14.02;;
11614;SDS011;5863;52.832;4.758;2023-06-19T08:08:34;24.73;;;14.98;;
11614;SDS011;5863;52.832;4.758;2023-06-19T08:11:01;18.10;;;14.57;;
11614;SDS011;5863;52.832;4.758;2023-06-19T08:13:28;29.35;;;16.13;;
11614;SDS011;5863;52.832;4.758;2023-06-19T08:15:56;24.45;;;16.05;;
11614;SDS011;5863;52.832;4.758;2023-06-19T08:18:22;23.33;;;16.50;;
11614;SDS011;5863;52.832;4.758;2023-06-19T08:20:49;26.25;;;18.52;;
11614;SDS011;5863;52.832;4.758;2023-06-19T08:23:16;25.00;;;17.40;;
11614;SDS011;5863;52.832;4.758;2023-06-19T08:25:42;24.23;;;17.98;;
11614;SDS011;5863;52.832;4.758;2023-06-19T08:28:09;25.73;;;17.75;;
11614;SDS011;5863;52.832;4.758;2023-06-19T08:30:36;24.10;;;17.13;;
11614;SDS011;5863;52.832;4.758;2023-06-19T08:33:04;27.00;;;17.35;;
11614;SDS011;5863;52.832;4.758;2023-06-19T08:35:30;28.50;;;18.45;;
11614;SDS011;5863;52.832;4.758;2023-06-19T08:37:57;26.48;;;18.55;;
11614;SDS011;5863;52.832;4.758;2023-06-19T08:40:24;23.58;;;17.90;;
11614;SDS011;5863;52.832;4.758;2023-06-19T08:42:50;24.65;;;17.77;;
11614;SDS011;5863;52.832;4.758;2023-06-19T08:45:18;25.92;;;19.65;;
11614;SDS011;5863;52.832;4.758;2023-06-19T08:47:46;27.92;;;19.83;;
11614;SDS011;5863;52.832;4.758;2023-06-19T08:50:14;32.03;;;19.75;;
11614;SDS011;5863;52.832;4.758;2023-06-19T08:52:41;26.55;;;19.00;;
11614;SDS011;5863;52.832;4.758;2023-06-19T08:55:08;27.70;;;19.90;;
11614;SDS011;5863;52.832;4.758;2023-06-19T08:57:35;28.13;;;20.02;;
11614;SDS011;5863;52.832;4.758;2023-06-19T09:00:04;52.55;;;20.17;;
11614;SDS011;5863;52.832;4.758;2023-06-19T09:02:36;28.13;;;19.77;;
11614;SDS011;5863;52.832;4.758;2023-06-19T09:05:13;24.77;;;18.63;;
11614;SDS011;5863;52.832;4.758;2023-06-19T09:07:42;23.52;;;18.25;;
11614;SDS011;5863;52.832;4.758;2023-06-19T09:10:13;20.85;;;15.30;;
11614;SDS011;5863;52.832;4.758;2023-06-19T09:12:42;21.83;;;16.63;;
11614;SDS011;5863;52.832;4.758;2023-06-19T09:15:12;19.88;;;15.35;;
11614;SDS011;5863;52.832;4.758;2023-06-19T09:17:39;21.20;;;16.00;;
11614;SDS011;5863;52.832;4.758;2023-06-19T09:20:07;19.98;;;15.55;;
11614;SDS011;5863;52.832;4.758;2023-06-19T09:22:38;20.35;;;15.60;;
11614;SDS011;5863;52.832;4.758;2023-06-19T09:25:06;24.08;;;14.80;;
11614;SDS011;5863;52.832;4.758;2023-06-19T09:27:35;18.25;;;14.35;;
11614;SDS011;5863;52.832;4.758;2023-06-19T09:30:02;18.50;;;13.40;;
11614;SDS011;5863;52.832;4.758;2023-06-19T09:32:31;17.13;;;12.65;;
11614;SDS011;5863;52.832;4.758;2023-06-19T09:34:57;18.77;;;12.68;;
11614;SDS011;5863;52.832;4.758;2023-06-19T09:37:24;14.27;;;11.32;;
11614;SDS011;5863;52.832;4.758;2023-06-19T09:39:54;13.30;;;11.13;;
11614;SDS011;5863;52.832;4.758;2023-06-19T09:42:25;12.57;;;10.55;;
11614;SDS011;5863;52.832;4.758;2023-06-19T09:44:55;13.48;;;9.95;;
11614;SDS011;5863;52.832;4.758;2023-06-19T09:47:24;12.93;;;10.63;;
11614;SDS011;5863;52.832;4.758;2023-06-19T09:49:54;13.95;;;11.43;;
11614;SDS011;5863;52.832;4.758;2023-06-19T09:52:22;14.60;;;11.05;;
11614;SDS011;5863;52.832;4.758;2023-06-19T09:54:50;13.65;;;10.35;;
11614;SDS011;5863;52.832;4.758;2023-06-19T09:57:19;13.93;;;10.07;;
11614;SDS011;5863;52.832;4.758;2023-06-19T09:59:46;11.73;;;10.52;;
11614;SDS011;5863;52.832;4.758;2023-06-19T10:02:14;13.90;;;10.95;;
11614;SDS011;5863;52.832;4.758;2023-06-19T10:04:42;13.30;;;11.75;;
11614;SDS011;5863;52.832;4.758;2023-06-19T10:07:17;13.63;;;11.20;;
11614;SDS011;5863;52.832;4.758;2023-06-19T10:09:58;12.10;;;10.85;;
11614;SDS011;5863;52.832;4.758;2023-06-19T10:12:37;12.75;;;10.60;;
11614;SDS011;5863;52.832;4.758;2023-06-19T10:15:17;14.60;;;11.40;;
11614;SDS011;5863;52.832;4.758;2023-06-19T10:17:46;14.25;;;10.68;;
11614;SDS011;5863;52.832;4.758;2023-06-19T10:20:24;14.73;;;11.82;;
11614;SDS011;5863;52.832;4.758;2023-06-19T10:22:57;14.10;;;10.80;;
11614;SDS011;5863;52.832;4.758;2023-06-19T10:25:27;14.05;;;11.27;;
11614;SDS011;5863;52.832;4.758;2023-06-19T10:27:57;17.10;;;12.43;;
11614;SDS011;5863;52.832;4.758;2023-06-19T10:30:24;15.25;;;10.88;;
11614;SDS011;5863;52.832;4.758;2023-06-19T10:32:51;15.75;;;11.35;;
11614;SDS011;5863;52.832;4.758;2023-06-19T10:35:18;14.00;;;10.23;;
11614;SDS011;5863;52.832;4.758;2023-06-19T10:37:46;17.45;;;9.82;;
11614;SDS011;5863;52.832;4.758;2023-06-19T10:40:14;12.82;;;10.18;;
11614;SDS011;5863;52.832;4.758;2023-06-19T10:42:40;15.45;;;10.57;;
11614;SDS011;5863;52.832;4.758;2023-06-19T10:45:09;13.98;;;10.38;;
11614;SDS011;5863;52.832;4.758;2023-06-19T10:47:38;14.93;;;9.38;;
11614;SDS011;5863;52.832;4.758;2023-06-19T10:50:09;14.45;;;10.45;;
11614;SDS011;5863;52.832;4.758;2023-06-19T10:52:38;14.05;;;9.52;;
11614;SDS011;5863;52.832;4.758;2023-06-19T10:55:06;17.90;;;10.60;;
11614;SDS011;5863;52.832;4.758;2023-06-19T10:57:33;13.32;;;9.38;;
11614;SDS011;5863;52.832;4.758;2023-06-19T11:00:00;11.93;;;9.45;;
11614;SDS011;5863;52.832;4.758;2023-06-19T11:02:32;13.05;;;9.40;;
11614;SDS011;5863;52.832;4.758;2023-06-19T11:04:58;11.27;;;9.13;;
11614;SDS011;5863;52.832;4.758;2023-06-19T11:07:25;11.60;;;8.43;;
11614;SDS011;5863;52.832;4.758;2023-06-19T11:09:53;13.82;;;9.20;;
11614;SDS011;5863;52.832;4.758;2023-06-19T11:12:19;10.25;;;9.13;;
11614;SDS011;5863;52.832;4.758;2023-06-19T11:14:47;14.80;;;9.60;;
11614;SDS011;5863;52.832;4.758;2023-06-19T11:17:14;12.18;;;9.40;;
11614;SDS011;5863;52.832;4.758;2023-06-19T11:19:42;14.88;;;8.70;;
11614;SDS011;5863;52.832;4.758;2023-06-19T11:22:09;11.95;;;8.63;;
11614;SDS011;5863;52.832;4.758;2023-06-19T11:24:36;10.18;;;8.30;;
11614;SDS011;5863;52.832;4.758;2023-06-19T11:27:03;11.45;;;8.43;;
11614;SDS011;5863;52.832;4.758;2023-06-19T11:29:30;9.77;;;7.88;;
11614;SDS011;5863;52.832;4.758;2023-06-19T11:32:04;9.57;;;7.78;;
11614;SDS011;5863;52.832;4.758;2023-06-19T11:34:32;9.07;;;7.93;;
11614;SDS011;5863;52.832;4.758;2023-06-19T11:37:10;10.38;;;8.18;;
11614;SDS011;5863;52.832;4.758;2023-06-19T11:39:38;11.73;;;7.03;;
11614;SDS011;5863;52.832;4.758;2023-06-19T11:42:06;11.02;;;7.63;;
11614;SDS011;5863;52.832;4.758;2023-06-19T11:44:33;10.35;;;7.22;;
11614;SDS011;5863;52.832;4.758;2023-06-19T11:47:00;12.35;;;8.40;;
11614;SDS011;5863;52.832;4.758;2023-06-19T11:49:27;13.68;;;7.97;;
11614;SDS011;5863;52.832;4.758;2023-06-19T11:52:00;10.93;;;7.28;;
11614;SDS011;5863;52.832;4.758;2023-06-19T11:54:28;9.30;;;7.38;;
11614;SDS011;5863;52.832;4.758;2023-06-19T11:56:55;13.35;;;8.05;;
11614;SDS011;5863;52.832;4.758;2023-06-19T11:59:22;8.73;;;7.50;;
11614;SDS011;5863;52.832;4.758;2023-06-19T12:01:48;9.52;;;7.38;;
11614;SDS011;5863;52.832;4.758;2023-06-19T12:04:15;11.18;;;7.75;;
11614;SDS011;5863;52.832;4.758;2023-06-19T12:06:42;9.60;;;7.50;;
11614;SDS011;5863;52.832;4.758;2023-06-19T12:09:09;11.32;;;6.97;;
11614;SDS011;5863;52.832;4.758;2023-06-19T12:11:38;13.18;;;7.50;;
11614;SDS011;5863;52.832;4.758;2023-06-19T12:14:04;10.27;;;7.68;;
11614;SDS011;5863;52.832;4.758;2023-06-19T12:16:31;11.45;;;8.00;;
11614;SDS011;5863;52.832;4.758;2023-06-19T12:18:58;11.93;;;8.05;;
11614;SDS011;5863;52.832;4.758;2023-06-19T12:21:25;11.30;;;7.75;;
11614;SDS011;5863;52.832;4.758;2023-06-19T12:23:51;12.80;;;7.78;;
11614;SDS011;5863;52.832;4.758;2023-06-19T12:26:18;13.52;;;7.70;;
11614;SDS011;5863;52.832;4.758;2023-06-19T12:28:46;11.07;;;8.38;;
11614;SDS011;5863;52.832;4.758;2023-06-19T12:31:13;12.15;;;8.45;;
11614;SDS011;5863;52.832;4.758;2023-06-19T12:33:40;10.05;;;7.70;;
11614;SDS011;5863;52.832;4.758;2023-06-19T12:36:10;11.43;;;7.88;;
11614;SDS011;5863;52.832;4.758;2023-06-19T12:38:38;12.48;;;7.97;;
11614;SDS011;5863;52.832;4.758;2023-06-19T12:41:05;12.55;;;7.82;;
11614;SDS011;5863;52.832;4.758;2023-06-19T12:43:32;11.88;;;7.68;;
11614;SDS011;5863;52.832;4.758;2023-06-19T12:46:00;11.65;;;8.70;;
11614;SDS011;5863;52.832;4.758;2023-06-19T12:48:27;12.05;;;8.23;;
11614;SDS011;5863;52.832;4.758;2023-06-19T12:50:54;20.45;;;9.13;;
11614;SDS011;5863;52.832;4.758;2023-06-19T12:53:21;11.05;;;8.30;;
11614;SDS011;5863;52.832;4.758;2023-06-19T12:55:51;11.15;;;8.38;;
11614;SDS011;5863;52.832;4.758;2023-06-19T12:58:18;11.80;;;8.48;;
11614;SDS011;5863;52.832;4.758;2023-06-19T13:00:45;14.18;;;8.50;;
11614;SDS011;5863;52.832;4.758;2023-06-19T13:03:13;13.00;;;8.73;;
11614;SDS011;5863;52.832;4.758;2023-06-19T13:05:39;12.30;;;8.77;;
11614;SDS011;5863;52.832;4.758;2023-06-19T13:08:06;16.48;;;9.23;;
11614;SDS011;5863;52.832;4.758;2023-06-19T13:10:33;13.35;;;8.57;;
11614;SDS011;5863;52.832;4.758;2023-06-19T13:13:00;11.05;;;8.60;;
11614;SDS011;5863;52.832;4.758;2023-06-19T13:15:26;13.80;;;8.70;;
11614;SDS011;5863;52.832;4.758;2023-06-19T13:17:53;13.23;;;8.68;;
11614;SDS011;5863;52.832;4.758;2023-06-19T13:20:21;13.05;;;9.18;;
11614;SDS011;5863;52.832;4.758;2023-06-19T13:22:48;12.88;;;8.95;;
11614;SDS011;5863;52.832;4.758;2023-06-19T13:25:15;14.10;;;8.65;;
11614;SDS011;5863;52.832;4.758;2023-06-19T13:27:42;14.00;;;8.80;;
11614;SDS011;5863;52.832;4.758;2023-06-19T13:30:09;14.13;;;8.68;;
11614;SDS011;5863;52.832;4.758;2023-06-19T13:32:36;15.38;;;8.55;;
11614;SDS011;5863;52.832;4.758;2023-06-19T13:35:03;12.68;;;8.40;;
11614;SDS011;5863;52.832;4.758;2023-06-19T13:37:32;13.48;;;8.32;;
11614;SDS011;5863;52.832;4.758;2023-06-19T13:40:00;10.55;;;8.00;;
11614;SDS011;5863;52.832;4.758;2023-06-19T13:42:28;13.40;;;8.80;;
11614;SDS011;5863;52.832;4.758;2023-06-19T13:44:56;12.43;;;8.55;;
11614;SDS011;5863;52.832;4.758;2023-06-19T13:47:22;13.55;;;9.05;;
11614;SDS011;5863;52.832;4.758;2023-06-19T13:49:51;13.02;;;8.32;;
11614;SDS011;5863;52.832;4.758;2023-06-19T13:52:17;11.27;;;8.15;;
11614;SDS011;5863;52.832;4.758;2023-06-19T13:54:46;12.27;;;8.25;;
11614;SDS011;5863;52.832;4.758;2023-06-19T13:57:13;12.25;;;7.82;;
11614;SDS011;5863;52.832;4.758;2023-06-19T13:59:39;12.00;;;8.00;;
11614;SDS011;5863;52.832;4.758;2023-06-19T14:02:07;14.18;;;7.65;;
11614;SDS011;5863;52.832;4.758;2023-06-19T14:04:35;11.27;;;8.07;;
11614;SDS011;5863;52.832;4.758;2023-06-19T14:07:02;10.88;;;8.00;;
11614;SDS011;5863;52.832;4.758;2023-06-19T14:09:29;12.23;;;8.35;;
11614;SDS011;5863;52.832;4.758;2023-06-19T14:11:57;9.85;;;7.57;;
11614;SDS011;5863;52.832;4.758;2023-06-19T14:14:24;17.10;;;8.30;;
11614;SDS011;5863;52.832;4.758;2023-06-19T14:16:51;11.70;;;8.10;;
11614;SDS011;5863;52.832;4.758;2023-06-19T14:19:18;12.38;;;8.55;;
11614;SDS011;5863;52.832;4.758;2023-06-19T14:21:46;13.25;;;8.18;;
11614;SDS011;5863;52.832;4.758;2023-06-19T14:24:13;15.85;;;8.23;;
11614;SDS011;5863;52.832;4.758;2023-06-19T14:26:41;13.85;;;8.77;;
11614;SDS011;5863;52.832;4.758;2023-06-19T14:29:09;11.75;;;8.02;;
11614;SDS011;5863;52.832;4.758;2023-06-19T14:31:38;11.55;;;7.60;;
11614;SDS011;5863;52.832;4.758;2023-06-19T14:34:05;10.90;;;8.07;;
11614;SDS011;5863;52.832;4.758;2023-06-19T14:36:32;13.27;;;8.48;;
11614;SDS011;5863;52.832;4.758;2023-06-19T14:38:58;13.40;;;8.00;;
11614;SDS011;5863;52.832;4.758;2023-06-19T14:41:25;13.85;;;8.50;;
11614;SDS011;5863;52.832;4.758;2023-06-19T14:43:52;11.43;;;8.30;;
11614;SDS011;5863;52.832;4.758;2023-06-19T14:46:20;9.90;;;7.63;;
11614;SDS011;5863;52.832;4.758;2023-06-19T14:48:46;14.00;;;8.15;;